Main page
METAR-TAF:

METAR-TAF

Airports :

Qazvin Airport

Qazvin, Iran

latitude: 36-15N, longitude: 050-00E, elevation: 1278 m

Current weather observation

The report was made 58 minutes ago, at 22:00 UTC
Wind 2 kt from the South
Temperature -1°C
Humidity 100%
Pressure 1022 hPa
Visibility 10 km or more
no clouds below 1500 m and no cumulonimbus

METAR: OIIK 212200Z 17002KT CAVOK M01/M01 Q1022

Time: 02:28 (22:58 UTC)


TAF: missing

Weather observations and forecasts of more than 4000 airports (METAR and TAF reports).

The available stations are represented by yellow and red dots on the map.

Hover mouse over dot to see the name of the station.

Then click to see weather observations and forecasts.

To change the map : click on the green buttons with a black cross to zoom in, on the green button with a dash to zoom out, or on the green arrows for adjacent maps.


METAR-TAF: